createdAt,value
2022-09-28T00:01:07.652Z,97233.97
2022-09-28T00:03:35.932Z,97223.13
2022-09-28T00:06:05.309Z,97224.66
2022-09-28T00:08:33.238Z,97203.44
2022-09-28T00:11:03.904Z,97225.03
2022-09-28T00:13:33.031Z,97217.72
2022-09-28T00:16:02.924Z,97207.75
2022-09-28T00:18:31.840Z,97200.78
2022-09-28T00:21:04.837Z,97200.09
2022-09-28T00:23:33.260Z,97197.44
2022-09-28T00:26:05.764Z,97184.16
2022-09-28T00:28:34.121Z,97188.34
2022-09-28T00:31:02.222Z,97177.53
2022-09-28T00:33:30.213Z,97134.94
2022-09-28T00:35:58.951Z,97163.56
2022-09-28T00:38:31.177Z,97162.84
2022-09-28T00:40:59.683Z,97108.88
2022-09-28T00:43:29.249Z,97148.16
2022-09-28T00:46:01.389Z,97152.31
2022-09-28T00:48:33.704Z,97173.22
2022-09-28T00:51:06.950Z,97155.09
2022-09-28T00:53:37.948Z,97146.47
2022-09-28T00:56:11.434Z,97130.66
2022-09-28T00:58:45.330Z,97142.16
2022-09-28T01:01:13.252Z,97129.34
2022-09-28T01:03:45.429Z,97103.06
2022-09-28T01:06:19.265Z,97117.56
2022-09-28T01:08:47.064Z,97102.78
2022-09-28T01:11:15.007Z,97088.66
2022-09-28T01:13:46.944Z,97094.28
2022-09-28T01:16:25.254Z,97081.00
2022-09-28T01:19:08.431Z,97065.59
2022-09-28T01:21:49.178Z,97060.44
2022-09-28T01:24:34.647Z,97066.75
2022-09-28T01:27:11.681Z,97054.28
2022-09-28T01:29:47.251Z,97043.16
2022-09-28T01:32:29.596Z,97018.38
2022-09-28T01:35:03.117Z,97023.19
2022-09-28T01:37:38.993Z,97011.75
2022-09-28T01:40:10.163Z,97028.69
2022-09-28T01:42:43.074Z,97015.91
2022-09-28T01:45:17.964Z,97011.28
2022-09-28T01:47:48.617Z,96991.28
2022-09-28T01:50:19.637Z,96998.44
2022-09-28T01:52:53.564Z,96978.34
2022-09-28T01:55:26.813Z,97000.75
2022-09-28T01:58:02.040Z,97000.25
2022-09-28T02:00:30.388Z,96979.03
2022-09-28T02:03:03.105Z,96967.41
2022-09-28T02:05:34.087Z,96955.13
2022-09-28T02:08:07.586Z,96945.84
2022-09-28T02:10:41.422Z,96911.94
2022-09-28T02:13:16.520Z,96928.41
2022-09-28T02:15:50.606Z,96945.84
2022-09-28T02:18:19.074Z,96942.81
2022-09-28T02:20:53.385Z,96950.63
2022-09-28T02:23:23.605Z,96932.38
2022-09-28T02:25:55.075Z,96956.28
2022-09-28T02:28:24.473Z,96946.81
2022-09-28T02:30:52.467Z,96955.31
2022-09-28T02:33:24.408Z,96964.59
2022-09-28T02:35:52.672Z,96976.38
2022-09-28T02:38:20.605Z,96959.44
2022-09-28T02:41:02.304Z,96947.13
2022-09-28T02:43:40.536Z,96948.47
2022-09-28T02:46:23.512Z,96948.47
2022-09-28T02:49:20.848Z,96950.47
2022-09-28T02:52:04.364Z,96952.81
2022-09-28T02:54:46.828Z,96937.00
2022-09-28T02:57:29.471Z,96942.97
2022-09-28T03:00:08.331Z,96941.19
2022-09-28T03:02:44.953Z,96951.47
2022-09-28T03:05:17.961Z,96945.34
2022-09-28T03:07:53.956Z,96938.34
2022-09-28T03:10:26.722Z,96928.72
2022-09-28T03:12:55.899Z,96932.88
2022-09-28T03:15:28.607Z,96936.03
2022-09-28T03:17:57.405Z,96950.63
2022-09-28T03:20:26.053Z,96957.94
2022-09-28T03:23:19.672Z,96926.88
2022-09-28T03:25:42.010Z,96959.91
2022-09-28T03:28:09.956Z,96965.03
2022-09-28T03:30:39.439Z,96969.56
2022-09-28T03:33:07.376Z,96955.75
2022-09-28T03:35:35.295Z,96964.41
2022-09-28T03:38:03.203Z,96952.72
2022-09-28T03:40:31.237Z,96960.59
2022-09-28T03:43:00.104Z,96928.88
2022-09-28T03:45:28.185Z,96938.50
2022-09-28T03:47:57.769Z,96934.03
2022-09-28T03:50:25.797Z,96914.06
2022-09-28T03:52:53.712Z,96897.63
2022-09-28T03:55:21.659Z,96911.91
2022-09-28T03:57:55.698Z,96915.09
2022-09-28T04:00:24.023Z,96898.97
2022-09-28T04:02:51.988Z,96903.78
2022-09-28T04:05:21.332Z,96875.53
2022-09-28T04:07:49.219Z,96861.63
2022-09-28T04:10:17.408Z,96883.38
2022-09-28T04:12:46.021Z,96889.38
2022-09-28T04:15:14.101Z,96902.63
2022-09-28T04:17:42.104Z,96888.84
2022-09-28T04:20:10.625Z,96893.66
2022-09-28T04:22:39.987Z,96888.19
2022-09-28T04:25:08.428Z,96885.19
2022-09-28T04:27:53.637Z,96911.94
2022-09-28T04:30:22.025Z,96904.78
2022-09-28T04:32:50.325Z,96913.28
2022-09-28T04:35:18.385Z,96901.97
2022-09-28T04:37:47.710Z,96910.63
2022-09-28T04:40:15.881Z,96900.00
2022-09-28T04:42:43.897Z,96900.69
2022-09-28T04:45:12.334Z,96902.34
2022-09-28T04:47:40.339Z,96903.00
2022-09-28T04:50:09.114Z,96881.94
2022-09-28T04:52:37.742Z,96889.06
2022-09-28T04:55:08.243Z,96886.44
2022-09-28T04:57:36.206Z,96895.41
2022-09-28T05:00:05.505Z,96897.25
2022-09-28T05:02:33.686Z,96895.41
2022-09-28T05:05:01.711Z,96894.91
2022-09-28T05:07:31.303Z,96893.22
2022-09-28T05:10:00.752Z,96921.28
2022-09-28T05:12:30.088Z,96905.34
2022-09-28T05:14:58.004Z,96916.66
2022-09-28T05:17:25.884Z,96915.16
2022-09-28T05:19:53.787Z,96921.47
2022-09-28T05:22:21.712Z,96914.47
2022-09-28T05:24:49.641Z,96919.13
2022-09-28T05:27:17.627Z,96929.09
2022-09-28T05:29:46.950Z,96929.94
2022-09-28T05:32:15.968Z,96920.97
2022-09-28T05:34:43.918Z,96940.06
2022-09-28T05:37:11.825Z,96934.59
2022-09-28T05:39:39.814Z,96940.06
2022-09-28T05:42:08.529Z,96932.94
2022-09-28T05:44:38.490Z,96927.63
2022-09-28T05:47:07.835Z,96944.09
2022-09-28T05:49:35.861Z,96943.09
2022-09-28T05:52:04.060Z,96929.31
2022-09-28T05:54:32.245Z,96925.13
2022-09-28T05:57:00.205Z,96929.44
2022-09-28T05:59:30.378Z,96937.13
2022-09-28T06:01:58.375Z,96941.59
2022-09-28T06:04:28.032Z,96916.84
2022-09-28T06:06:56.009Z,96935.09
2022-09-28T06:09:26.076Z,96947.25
2022-09-28T06:11:54.270Z,96942.59
2022-09-28T06:14:22.380Z,96946.25
2022-09-28T06:16:55.940Z,96934.78
2022-09-28T06:19:24.242Z,96944.94
2022-09-28T06:21:53.552Z,96947.22
2022-09-28T06:24:21.508Z,96942.56
2022-09-28T06:26:49.421Z,96960.66
2022-09-28T06:29:19.854Z,96955.34
2022-09-28T06:31:48.131Z,96957.50
2022-09-28T06:34:16.160Z,96967.47
2022-09-28T06:36:44.104Z,96956.84
2022-09-28T06:39:13.417Z,96977.44
2022-09-28T06:41:41.360Z,96973.81
2022-09-28T06:44:09.377Z,96973.28
2022-09-28T06:46:39.330Z,96980.44
2022-09-28T06:49:09.383Z,96991.72
2022-09-28T06:51:37.782Z,97008.03
2022-09-28T06:54:05.925Z,97001.19
2022-09-28T06:56:35.298Z,97019.09
2022-09-28T06:59:03.307Z,97018.13
2022-09-28T07:01:31.450Z,97033.41
2022-09-28T07:04:01.963Z,97014.25
2022-09-28T07:06:31.586Z,97024.19
2022-09-28T07:09:22.612Z,97043.16
2022-09-28T07:11:52.786Z,97033.53
2022-09-28T07:14:40.789Z,97040.63
2022-09-28T07:17:14.047Z,97051.75
2022-09-28T07:19:42.655Z,97033.97
2022-09-28T07:22:18.590Z,97042.59
2022-09-28T07:24:48.059Z,97047.09
2022-09-28T07:27:17.621Z,97050.44
2022-09-28T07:29:45.598Z,97047.09
2022-09-28T07:32:13.487Z,97059.41
2022-09-28T07:34:43.937Z,97065.38
2022-09-28T07:37:13.469Z,97068.34
2022-09-28T07:39:58.282Z,97068.69
2022-09-28T07:42:30.404Z,97075.34
2022-09-28T07:44:58.395Z,97079.66
2022-09-28T07:47:33.848Z,97075.22
2022-09-28T07:50:02.958Z,97075.41
2022-09-28T07:52:30.933Z,97052.47
2022-09-28T07:55:04.526Z,97072.91
2022-09-28T07:57:36.295Z,97092.31
2022-09-28T08:00:07.227Z,97097.66
2022-09-28T08:02:35.555Z,97097.34
2022-09-28T08:05:03.611Z,97083.72
2022-09-28T08:07:31.961Z,97104.31
2022-09-28T08:09:59.881Z,97115.41
2022-09-28T08:12:27.813Z,97092.66
2022-09-28T08:14:57.195Z,97112.75
2022-09-28T08:17:25.277Z,97108.78
2022-09-28T08:20:10.622Z,97132.28
2022-09-28T08:22:38.766Z,97118.91
2022-09-28T08:25:08.139Z,97136.59
2022-09-28T08:27:36.253Z,97131.88
2022-09-28T08:30:06.608Z,97131.88
2022-09-28T08:32:35.840Z,97133.38
2022-09-28T08:35:03.962Z,97142.03
2022-09-28T08:37:31.823Z,97138.09
2022-09-28T08:39:59.794Z,97134.47
2022-09-28T08:42:34.799Z,97112.84
2022-09-28T08:45:10.476Z,97119.50
2022-09-28T08:48:07.956Z,97135.97
2022-09-28T08:50:42.606Z,97143.94
2022-09-28T08:53:24.988Z,97143.94
2022-09-28T08:55:53.815Z,97148.25
2022-09-28T08:58:28.377Z,97162.06
2022-09-28T09:00:59.231Z,97161.78
2022-09-28T09:03:33.473Z,97149.78
2022-09-28T09:06:14.284Z,97166.59
2022-09-28T09:09:00.168Z,97158.13
2022-09-28T09:11:46.477Z,97171.44
2022-09-28T09:14:34.608Z,97168.09
2022-09-28T09:17:14.288Z,97167.28
2022-09-28T09:19:49.609Z,97165.44
2022-09-28T09:22:22.819Z,97146.97
2022-09-28T09:24:53.666Z,97148.00
2022-09-28T09:27:47.545Z,97144.00
2022-09-28T09:30:20.107Z,97182.78
2022-09-28T09:33:11.497Z,97188.59
2022-09-28T09:35:58.465Z,97174.28
2022-09-28T09:38:42.661Z,97182.75
2022-09-28T09:41:16.793Z,97181.09
2022-09-28T09:44:00.006Z,97160.78
2022-09-28T09:46:36.809Z,97173.63
2022-09-28T09:49:13.529Z,97170.31
2022-09-28T09:51:46.871Z,97175.97
2022-09-28T09:54:22.186Z,97176.09
2022-09-28T09:56:56.727Z,97164.97
2022-09-28T09:59:27.359Z,97169.28
2022-09-28T10:01:57.115Z,97155.09
2022-09-28T10:04:31.225Z,97164.25
2022-09-28T10:07:02.889Z,97165.88
2022-09-28T10:09:35.969Z,97165.41
2022-09-28T10:12:04.193Z,97161.06
2022-09-28T10:14:32.297Z,97149.75
2022-09-28T10:17:03.909Z,97162.22
2022-09-28T10:19:35.061Z,97160.56
2022-09-28T10:22:07.226Z,97152.19
2022-09-28T10:24:37.900Z,97155.06
2022-09-28T10:27:07.984Z,97128.19
2022-09-28T10:29:45.456Z,97142.81
2022-09-28T10:32:21.370Z,97160.47
2022-09-28T10:34:52.641Z,97163.97
2022-09-28T10:37:20.936Z,97145.47
2022-09-28T10:39:53.335Z,97166.78
2022-09-28T10:42:27.233Z,97175.94
2022-09-28T10:44:56.967Z,97172.59
2022-09-28T10:47:27.456Z,97182.06
2022-09-28T10:49:57.741Z,97167.66
2022-09-28T10:52:34.210Z,97171.09
2022-09-28T10:55:02.625Z,97176.09
2022-09-28T10:57:35.165Z,97170.94
2022-09-28T11:00:06.390Z,97175.25
2022-09-28T11:02:36.621Z,97170.56
2022-09-28T11:05:08.254Z,97158.28
2022-09-28T11:07:47.248Z,97161.81
2022-09-28T11:10:22.724Z,97167.28
2022-09-28T11:12:51.285Z,97169.75
2022-09-28T11:15:22.400Z,97165.63
2022-09-28T11:17:50.296Z,97171.41
2022-09-28T11:20:35.599Z,97158.09
2022-09-28T11:23:20.475Z,97156.97
2022-09-28T11:26:01.036Z,97162.47
2022-09-28T11:28:33.693Z,97168.63
2022-09-28T11:31:03.346Z,97162.66
2022-09-28T11:33:33.829Z,97164.13
2022-09-28T11:36:26.347Z,97167.72
2022-09-28T11:39:08.865Z,97162.44
2022-09-28T11:42:03.657Z,97164.31
2022-09-28T11:44:44.790Z,97171.06
2022-09-28T11:47:38.679Z,97159.31
2022-09-28T11:50:22.976Z,97161.09
2022-09-28T11:53:00.320Z,97165.59
2022-09-28T11:55:36.126Z,97160.22
2022-09-28T11:58:12.031Z,97162.94
2022-09-28T12:00:46.865Z,97151.13
2022-09-28T12:03:19.648Z,97158.91
2022-09-28T12:05:52.736Z,97151.63
2022-09-28T12:08:28.057Z,97161.25
2022-09-28T12:11:00.745Z,97151.97
2022-09-28T12:13:31.116Z,97159.44
2022-09-28T12:16:38.747Z,97152.63
2022-09-28T12:18:54.706Z,97166.56
2022-09-28T12:21:35.906Z,97157.91
2022-09-28T12:24:14.361Z,97161.03
2022-09-28T12:26:48.495Z,97159.50
2022-09-28T12:29:21.672Z,97161.72
2022-09-28T12:31:59.243Z,97168.84
2022-09-28T12:34:27.609Z,97163.22
2022-09-28T12:37:10.136Z,97164.19
2022-09-28T12:39:58.152Z,97174.13
2022-09-28T12:42:47.332Z,97174.69
2022-09-28T12:45:42.959Z,97172.38
2022-09-28T12:48:36.134Z,97172.41
2022-09-28T12:51:17.052Z,97171.41
2022-09-28T12:54:12.046Z,97173.56
2022-09-28T12:56:48.296Z,97171.53
2022-09-28T12:59:22.188Z,97164.56
2022-09-28T13:01:59.840Z,97168.06
2022-09-28T13:04:47.783Z,97170.72
2022-09-28T13:07:25.101Z,97177.03
2022-09-28T13:10:06.199Z,97170.22
2022-09-28T13:12:49.794Z,97172.41
2022-09-28T13:15:41.217Z,97176.25
2022-09-28T13:18:17.106Z,97167.28
2022-09-28T13:21:00.367Z,97165.63
2022-09-28T13:23:34.612Z,97160.00
2022-09-28T13:26:11.072Z,97144.91
2022-09-28T13:28:42.327Z,97140.75
2022-09-28T13:31:12.075Z,97143.06
2022-09-28T13:33:42.004Z,97148.72
2022-09-28T13:36:38.097Z,97141.22
2022-09-28T13:39:38.001Z,97140.91
2022-09-28T13:42:09.994Z,97150.06
2022-09-28T13:44:56.558Z,97139.41
2022-09-28T13:47:44.522Z,97146.22
2022-09-28T13:50:25.722Z,97147.72
2022-09-28T13:53:03.823Z,97151.38
2022-09-28T13:55:38.856Z,97143.19
2022-09-28T13:58:19.102Z,97112.09
2022-09-28T14:00:52.551Z,97166.16
2022-09-28T14:03:28.693Z,97164.34
2022-09-28T14:06:21.866Z,97133.03
2022-09-28T14:09:09.167Z,97163.63
2022-09-28T14:11:55.536Z,97170.47
2022-09-28T14:14:48.922Z,97175.25
2022-09-28T14:17:52.382Z,97146.56
2022-09-28T14:20:26.088Z,97168.25
2022-09-28T14:23:25.426Z,97179.19
2022-09-28T14:26:32.154Z,97187.34
2022-09-28T14:29:10.768Z,97180.00
2022-09-28T14:31:43.847Z,97184.88
2022-09-28T14:34:28.385Z,97187.63
2022-09-28T14:37:13.582Z,97196.13
2022-09-28T14:40:03.138Z,97184.63
2022-09-28T14:42:31.240Z,97191.31
2022-09-28T14:45:38.437Z,97187.53
2022-09-28T14:48:15.220Z,97198.31
2022-09-28T14:50:44.600Z,97188.69
2022-09-28T14:53:14.778Z,97192.84
2022-09-28T14:55:50.296Z,97193.53
2022-09-28T14:58:24.080Z,97197.06
2022-09-28T15:01:02.711Z,97199.03
2022-09-28T15:03:34.460Z,97195.56
2022-09-28T15:06:03.757Z,97193.22
2022-09-28T15:08:39.073Z,97197.34
2022-09-28T15:11:10.596Z,97194.34
2022-09-28T15:13:40.918Z,97191.53
2022-09-28T15:16:12.599Z,97181.09
2022-09-28T15:19:18.842Z,97185.06
2022-09-28T15:21:50.123Z,97188.38
2022-09-28T15:24:31.536Z,97164.25
2022-09-28T15:26:59.678Z,97166.06
2022-09-28T15:29:31.420Z,97177.91
2022-09-28T15:31:59.462Z,97188.59
2022-09-28T15:34:46.925Z,97181.75
2022-09-28T15:37:19.039Z,97176.25
2022-09-28T15:39:48.325Z,97190.91
2022-09-28T15:42:18.459Z,97183.41
2022-09-28T15:45:02.574Z,97184.06
2022-09-28T15:47:31.919Z,97181.75
2022-09-28T15:50:02.174Z,97188.88
2022-09-28T15:52:38.437Z,97185.50
2022-09-28T15:55:19.899Z,97187.69
2022-09-28T15:57:48.459Z,97187.53
2022-09-28T16:00:29.105Z,97189.84
2022-09-28T16:03:19.056Z,97187.16
2022-09-28T16:05:49.755Z,97196.47
2022-09-28T16:08:24.808Z,97198.16
2022-09-28T16:11:03.981Z,97178.97
2022-09-28T16:13:32.650Z,97204.50
2022-09-28T16:16:01.375Z,97197.31
2022-09-28T16:18:33.078Z,97213.63
2022-09-28T16:21:40.838Z,97212.63
2022-09-28T16:24:22.006Z,97214.47
2022-09-28T16:27:00.272Z,97206.97
2022-09-28T16:29:40.217Z,97208.75
2022-09-28T16:32:38.848Z,97206.03
2022-09-28T16:35:25.421Z,97207.06
2022-09-28T16:38:02.220Z,97209.38
2022-09-28T16:40:46.930Z,97213.66
2022-09-28T16:43:25.679Z,97211.94
2022-09-28T16:45:57.654Z,97201.63
2022-09-28T16:48:30.026Z,97209.06
2022-09-28T16:51:01.135Z,97222.72
2022-09-28T16:53:46.775Z,97221.00
2022-09-28T16:56:19.273Z,97219.50
2022-09-28T16:58:49.434Z,97224.00
2022-09-28T17:01:22.048Z,97229.44
2022-09-28T17:03:51.227Z,97220.75
2022-09-28T17:06:21.449Z,97236.91
2022-09-28T17:08:49.484Z,97233.25
2022-09-28T17:11:24.715Z,97237.25
2022-09-28T17:13:59.015Z,97226.41
2022-09-28T17:19:21.904Z,97224.28
2022-09-28T17:21:50.588Z,97240.41
2022-09-28T17:24:19.025Z,97240.03
2022-09-28T17:26:51.099Z,97243.88
2022-09-28T17:29:19.915Z,97220.25
2022-09-28T17:31:48.581Z,97242.84
2022-09-28T17:34:17.240Z,97242.94
2022-09-28T17:36:45.926Z,97242.41
2022-09-28T17:39:14.850Z,97250.31
2022-09-28T17:41:42.904Z,97247.94
2022-09-28T17:44:16.364Z,97226.72
2022-09-28T17:46:48.753Z,97253.19
2022-09-28T17:49:17.868Z,97263.19
2022-09-28T17:51:45.824Z,97270.78
2022-09-28T17:54:16.788Z,97272.84
2022-09-28T17:56:44.863Z,97280.25
2022-09-28T17:59:15.559Z,97276.41
2022-09-28T18:01:43.645Z,97283.91
2022-09-28T18:04:33.381Z,97284.13
2022-09-28T18:07:01.507Z,97281.38
2022-09-28T18:09:29.569Z,97284.88
2022-09-28T18:12:01.337Z,97271.81
2022-09-28T18:14:31.217Z,97279.66
2022-09-28T18:16:59.215Z,97284.44
2022-09-28T18:19:31.806Z,97290.34
2022-09-28T18:22:01.500Z,97284.34
2022-09-28T18:24:29.625Z,97292.16
2022-09-28T18:26:57.558Z,97300.56
2022-09-28T18:29:26.223Z,97301.25
2022-09-28T18:31:56.600Z,97307.25
2022-09-28T18:34:24.656Z,97227.94
2022-09-28T18:36:52.546Z,97292.31
2022-09-28T18:39:20.625Z,97310.28
2022-09-28T18:41:48.673Z,97316.19
2022-09-28T18:44:16.603Z,97319.13
2022-09-28T18:46:44.701Z,97318.31
2022-09-28T18:49:14.173Z,97310.66
2022-09-28T18:51:42.114Z,97317.34
2022-09-28T18:54:10.158Z,97316.09
2022-09-28T18:56:38.201Z,97312.53
2022-09-28T18:59:11.756Z,97327.28
2022-09-28T19:01:41.892Z,97302.78
2022-09-28T19:04:11.799Z,97329.47
2022-09-28T19:06:42.565Z,97315.81
2022-09-28T19:09:10.714Z,97320.22
2022-09-28T19:11:39.016Z,97332.25
2022-09-28T19:14:07.011Z,97332.81
2022-09-28T19:16:34.974Z,97335.59
2022-09-28T19:19:03.384Z,97334.47
2022-09-28T19:21:31.673Z,97337.56
2022-09-28T19:24:04.103Z,97316.88
2022-09-28T19:26:32.943Z,97341.75
2022-09-28T19:29:01.223Z,97336.38
2022-09-28T19:31:30.119Z,97340.53
2022-09-28T19:33:58.445Z,97342.06
2022-09-28T19:36:28.677Z,97339.47
2022-09-28T19:38:58.212Z,97327.34
2022-09-28T19:41:51.168Z,97327.44
2022-09-28T19:44:25.073Z,97312.94
2022-09-28T19:46:54.756Z,97324.47
2022-09-28T19:49:23.593Z,97335.25
2022-09-28T19:52:12.225Z,97307.00
2022-09-28T19:54:43.954Z,97333.03
2022-09-28T19:57:14.562Z,97328.94
2022-09-28T19:59:42.561Z,97305.28
2022-09-28T20:02:13.391Z,97338.09
2022-09-28T20:04:41.459Z,97344.28
2022-09-28T20:07:09.429Z,97324.09
2022-09-28T20:09:37.417Z,97323.53
2022-09-28T20:12:05.489Z,97333.09
2022-09-28T20:14:38.201Z,97337.44
2022-09-28T20:17:08.381Z,97308.75
2022-09-28T20:19:36.320Z,97330.13
2022-09-28T20:22:05.647Z,97335.53
2022-09-28T20:24:33.951Z,97337.59
2022-09-28T20:27:02.839Z,97340.38
2022-09-28T20:29:33.454Z,97330.59
2022-09-28T20:32:04.375Z,97327.34
2022-09-28T20:34:33.656Z,97319.97
2022-09-28T20:37:01.692Z,97322.88
2022-09-28T20:39:31.360Z,97313.94
2022-09-28T20:41:59.369Z,97329.94
2022-09-28T20:44:27.444Z,97328.03
2022-09-28T20:46:56.714Z,97334.25
2022-09-28T20:49:27.265Z,97336.75
2022-09-28T20:51:55.377Z,97321.81
2022-09-28T20:54:23.491Z,97307.16
2022-09-28T20:56:51.433Z,97314.00
2022-09-28T20:59:20.339Z,97320.66
2022-09-28T21:01:48.402Z,97309.81
2022-09-28T21:04:16.491Z,97314.22
2022-09-28T21:06:46.144Z,97295.63
2022-09-28T21:09:14.122Z,97327.19
2022-09-28T21:11:42.080Z,97325.53
2022-09-28T21:14:11.355Z,97292.78
2022-09-28T21:16:40.668Z,97326.75
2022-09-28T21:19:08.711Z,97303.63
2022-09-28T21:21:36.637Z,97325.38
2022-09-28T21:24:06.274Z,97312.41
2022-09-28T21:26:35.150Z,97311.72
2022-09-28T21:29:05.965Z,97311.28
2022-09-28T21:31:39.211Z,97293.69
2022-09-28T21:34:07.914Z,97300.88
2022-09-28T21:36:40.363Z,97300.34
2022-09-28T21:39:10.638Z,97301.47
2022-09-28T21:41:39.019Z,97301.19
2022-09-28T21:44:07.401Z,97303.69
2022-09-28T21:46:36.519Z,97294.75
2022-09-28T21:49:06.404Z,97288.75
2022-09-28T21:51:35.130Z,97251.13
2022-09-28T21:54:03.211Z,97258.19
2022-09-28T21:56:32.674Z,97281.94
2022-09-28T21:59:01.418Z,97252.72
2022-09-28T22:01:29.490Z,97298.91
2022-09-28T22:03:57.854Z,97300.03
2022-09-28T22:06:28.332Z,97289.44
2022-09-28T22:08:56.339Z,97295.72
2022-09-28T22:11:26.150Z,97280.94
2022-09-28T22:13:57.494Z,97290.81
2022-09-28T22:16:28.061Z,97280.94
2022-09-28T22:18:56.524Z,97214.19
2022-09-28T22:21:26.001Z,97285.63
2022-09-28T22:23:54.362Z,97282.59
2022-09-28T22:26:24.960Z,97261.97
2022-09-28T22:28:56.488Z,97302.25
2022-09-28T22:31:26.532Z,97218.84
2022-09-28T22:33:54.976Z,97294.28
2022-09-28T22:36:23.146Z,97299.91
2022-09-28T22:38:51.223Z,97304.34
2022-09-28T22:41:21.208Z,97305.66
2022-09-28T22:43:50.115Z,97301.88
2022-09-28T22:46:22.818Z,97291.31
2022-09-28T22:48:52.684Z,97302.16
2022-09-28T22:51:21.517Z,97302.47
2022-09-28T22:53:49.561Z,97246.25
2022-09-28T22:56:19.193Z,97282.00
2022-09-28T22:58:48.005Z,97285.16
2022-09-28T23:01:18.615Z,97288.13
2022-09-28T23:03:49.256Z,97289.78
2022-09-28T23:06:18.999Z,97290.66
2022-09-28T23:08:47.797Z,97227.25
2022-09-28T23:11:16.162Z,97278.25
2022-09-28T23:13:44.550Z,97265.16
2022-09-28T23:16:14.859Z,97284.09
2022-09-28T23:18:43.785Z,97272.81
2022-09-28T23:21:16.331Z,97270.69
2022-09-28T23:23:45.156Z,97243.41
2022-09-28T23:26:14.696Z,97256.66
2022-09-28T23:28:43.031Z,97267.50
2022-09-28T23:31:12.329Z,97261.91
2022-09-28T23:33:40.589Z,97249.59
2022-09-28T23:36:09.736Z,97224.06
2022-09-28T23:38:39.555Z,97258.72
2022-09-28T23:41:07.886Z,97248.88
2022-09-28T23:43:36.300Z,97259.84
2022-09-28T23:46:04.851Z,97257.66
2022-09-28T23:48:33.159Z,97262.13
2022-09-28T23:51:01.420Z,97249.84
2022-09-28T23:53:30.078Z,97256.06
2022-09-28T23:55:59.693Z,97243.78
2022-09-28T23:58:28.366Z,97251.88
